Time;durP1;ratioP1;P1;durP2;ratioP2;P2;SDS_P1;SDS_P2;PMS_P1;PMS_P2;Temp;Humidity;BMP_temperature;BMP_pressure;BME280_temperature;BME280_humidity;BME280_pressure;Samples;Min_cycle;Max_cycle;Signal;HPM_P1;HPM_P2
2023/01/08 00:01:23;;;;;;;4.72;2.90;;;10.10;99.90;;;;;;5015889;28;20042;-84
2023/01/08 00:03:49;;;;;;;4.38;2.72;;;9.80;99.90;;;;;;5000082;28;20427;-85
2023/01/08 00:06:17;;;;;;;3.58;2.63;;;9.60;99.90;;;;;;5016098;28;20136;-85
2023/01/08 00:08:44;;;;;;;4.30;2.80;;;9.60;99.90;;;;;;5015881;28;20099;-84
2023/01/08 00:11:10;;;;;;;4.70;2.92;;;9.60;99.90;;;;;;5033382;28;20525;-85
2023/01/08 00:13:36;;;;;;;3.60;2.90;;;9.70;99.90;;;;;;5015850;28;20053;-86
2023/01/08 00:16:07;;;;;;;3.40;2.63;;;9.60;99.90;;;;;;5000006;28;20292;-84
2023/01/08 00:18:33;;;;;;;5.10;2.72;;;9.60;99.90;;;;;;5033779;28;20045;-85
2023/01/08 00:20:59;;;;;;;3.95;2.95;;;9.60;99.90;;;;;;5016131;28;20549;-84
2023/01/08 00:23:25;;;;;;;4.13;2.60;;;9.60;99.90;;;;;;5016175;28;20048;-85
2023/01/08 00:25:51;;;;;;;4.32;2.58;;;9.80;99.90;;;;;;4999995;28;20052;-83
2023/01/08 00:28:17;;;;;;;3.53;2.72;;;10.30;99.90;;;;;;5020607;28;20041;-82
2023/01/08 00:30:42;;;;;;;3.72;2.97;;;9.60;99.90;;;;;;5040221;28;20053;-84
2023/01/08 00:33:09;;;;;;;3.33;2.75;;;9.60;99.90;;;;;;5037257;28;20041;-85
2023/01/08 00:35:37;;;;;;;3.47;2.70;;;9.60;99.90;;;;;;5003266;28;20492;-86
2023/01/08 00:38:03;;;;;;;3.50;2.50;;;9.60;99.90;;;;;;5003314;28;20398;-83
2023/01/08 00:40:28;;;;;;;5.35;3.05;;;9.60;99.90;;;;;;5037198;28;20049;-84
2023/01/08 00:42:54;;;;;;;2.90;2.55;;;9.60;99.90;;;;;;5037080;28;20046;-84
2023/01/08 00:45:19;;;;;;;8.38;3.20;;;9.90;99.90;;;;;;5003999;28;20049;-83
2023/01/08 00:47:45;;;;;;;3.10;2.72;;;9.50;99.90;;;;;;5019725;28;20044;-83
2023/01/08 00:50:11;;;;;;;3.60;2.88;;;10.20;99.90;;;;;;5036987;28;20037;-82
2023/01/08 00:52:37;;;;;;;3.95;2.50;;;10.20;99.90;;;;;;5003136;28;20072;-84
2023/01/08 00:55:02;;;;;;;4.53;3.08;;;9.60;99.90;;;;;;5019607;28;20041;-84
2023/01/08 00:57:37;;;;;;;6.15;3.15;;;9.60;99.90;;;;;;5003027;28;20092;-85
2023/01/08 01:00:05;;;;;;;6.32;2.80;;;9.60;99.90;;;;;;5019108;28;20045;-83
2023/01/08 01:02:31;;;;;;;3.80;2.80;;;9.60;99.90;;;;;;5019728;28;20389;-83
2023/01/08 01:04:57;;;;;;;4.40;2.67;;;9.60;99.90;;;;;;5019305;28;20049;-85
2023/01/08 01:07:22;;;;;;;3.35;2.72;;;9.70;99.90;;;;;;5002952;28;20080;-83
2023/01/08 01:09:48;;;;;;;5.60;2.72;;;9.60;99.90;;;;;;5018849;28;20037;-83
2023/01/08 01:12:13;;;;;;;4.50;2.65;;;9.40;99.90;;;;;;5002818;28;20398;-84
2023/01/08 01:14:39;;;;;;;4.40;2.75;;;9.60;99.90;;;;;;5002805;28;20052;-82
2023/01/08 01:17:05;;;;;;;3.97;2.92;;;9.60;99.90;;;;;;5036530;28;20052;-85
2023/01/08 01:19:30;;;;;;;4.85;2.88;;;9.70;99.90;;;;;;5019091;28;20437;-83
2023/01/08 01:21:56;;;;;;;8.15;4.50;;;9.60;99.90;;;;;;5018959;28;20061;-84
2023/01/08 01:24:23;;;;;;;3.83;3.08;;;9.50;99.90;;;;;;5002350;28;20053;-85
2023/01/08 01:26:50;;;;;;;3.28;2.78;;;9.50;99.90;;;;;;5018635;28;20060;-83
2023/01/08 01:29:16;;;;;;;;;;;9.50;99.90;;;;;;5003389;28;20053;-85
2023/01/08 01:31:42;;;;;;;3.03;2.60;;;9.50;99.90;;;;;;5021300;28;20008;-86
2023/01/08 01:34:09;;;;;;;3.88;2.90;;;9.50;99.90;;;;;;5002411;28;20045;-86
2023/01/08 01:36:35;;;;;;;;;;;9.50;99.90;;;;;;5036383;28;20064;-85
2023/01/08 01:39:01;;;;;;;3.83;2.80;;;10.20;99.90;;;;;;5001555;28;19925;-85
2023/01/08 01:41:41;;;;;;;6.50;2.97;;;9.50;99.90;;;;;;5018413;28;20511;-85
2023/01/08 01:44:33;;;;;;;5.75;2.35;;;9.50;99.90;;;;;;5018720;28;20052;-85
2023/01/08 01:47:01;;;;;;;6.32;1.95;;;9.40;99.90;;;;;;5018577;28;20089;-84
2023/01/08 01:49:27;;;;;;;2.92;1.45;;;9.30;99.90;;;;;;5018281;28;20046;-84
2023/01/08 01:52:01;;;;;;;3.40;1.60;;;9.20;99.90;;;;;;5018359;28;20130;-85
2023/01/08 01:54:28;;;;;;;4.72;1.50;;;9.20;99.90;;;;;;5018540;28;20407;-84
2023/01/08 01:56:55;;;;;;;3.80;1.30;;;9.00;99.90;;;;;;5017975;28;20048;-84
2023/01/08 01:59:20;;;;;;;3.08;1.33;;;8.90;99.90;;;;;;5018032;28;20046;-83
2023/01/08 02:01:47;;;;;;;3.25;1.52;;;9.90;99.90;;;;;;5018006;28;20056;-84
2023/01/08 02:04:13;;;;;;;7.97;1.90;;;8.80;99.90;;;;;;5018191;28;20048;-83
2023/01/08 02:06:52;;;;;;;7.85;1.83;;;8.70;99.90;;;;;;5017988;28;20049;-84
2023/01/08 02:09:21;;;;;;;4.97;1.52;;;8.60;99.90;;;;;;5001623;28;20054;-83
2023/01/08 02:12:29;;;;;;;5.03;1.60;;;8.60;99.90;;;;;;5001725;28;20406;-84
2023/01/08 02:15:16;;;;;;;5.77;2.07;;;8.50;99.90;;;;;;4938933;29;20138;-85
2023/01/08 02:18:01;;;;;;;4.95;1.70;;;8.50;99.90;;;;;;4955108;29;20058;-84
2023/01/08 02:20:32;;;;;;;3.15;1.45;;;8.40;99.90;;;;;;4999651;28;20053;-84
2023/01/08 02:23:22;;;;;;;4.05;1.80;;;8.40;99.90;;;;;;5017844;28;20037;-84
2023/01/08 02:26:03;;;;;;;4.95;2.05;;;8.40;99.90;;;;;;5018342;28;20499;-85
2023/01/08 02:28:30;;;;;;;5.35;1.60;;;8.80;99.90;;;;;;5001572;28;20044;-85
2023/01/08 02:30:56;;;;;;;;;;;8.40;99.90;;;;;;5018008;28;20046;-83
2023/01/08 02:33:23;;;;;;;6.50;1.70;;;9.20;99.90;;;;;;5003345;28;19975;-83
2023/01/08 02:35:54;;;;;;;3.05;1.50;;;8.40;99.90;;;;;;5017242;28;20045;-82
2023/01/08 02:38:22;;;;;;;3.63;1.50;;;8.30;99.90;;;;;;5034941;28;20049;-84
2023/01/08 02:41:07;;;;;;;5.20;1.52;;;8.90;99.90;;;;;;5001490;28;20053;-83
2023/01/08 02:43:43;;;;;;;5.60;1.52;;;8.30;99.90;;;;;;5017472;28;20049;-83
2023/01/08 02:46:15;;;;;;;3.47;1.55;;;8.30;99.90;;;;;;5034667;28;20084;-83
2023/01/08 02:48:56;;;;;;;3.45;1.60;;;8.30;99.90;;;;;;5034432;28;20498;-83
2023/01/08 02:51:33;;;;;;;2.30;1.50;;;8.30;99.90;;;;;;5017257;28;20048;-83
2023/01/08 02:54:03;;;;;;;2.92;1.52;;;8.40;99.90;;;;;;5017342;28;20056;-83
2023/01/08 02:56:35;;;;;;;2.42;1.60;;;8.30;99.90;;;;;;5000614;28;20049;-83
2023/01/08 02:59:04;;;;;;;3.85;1.70;;;8.30;99.90;;;;;;5000967;28;20049;-83
2023/01/08 03:01:31;;;;;;;3.33;1.90;;;8.30;99.90;;;;;;5000713;28;20049;-85
2023/01/08 03:03:59;;;;;;;;;;;8.30;99.90;;;;;;5017183;28;20049;-84
2023/01/08 03:06:27;;;;;;;4.05;2.60;;;8.30;99.90;;;;;;5000603;28;19921;-83
2023/01/08 03:08:53;;;;;;;3.70;2.67;;;8.30;99.90;;;;;;5016281;28;20046;-83
2023/01/08 03:11:22;;;;;;;5.60;3.03;;;8.40;99.90;;;;;;5000534;28;20053;-82
2023/01/08 03:14:06;;;;;;;4.72;2.85;;;8.40;99.90;;;;;;5016818;28;20037;-84
2023/01/08 03:16:39;;;;;;;6.03;3.35;;;8.40;99.90;;;;;;5016724;28;20096;-84
2023/01/08 03:19:36;;;;;;;3.78;3.10;;;8.50;99.90;;;;;;5017011;28;20041;-83
2023/01/08 03:22:07;;;;;;;7.32;3.45;;;9.10;99.90;;;;;;5034066;28;20046;-83
2023/01/08 03:24:36;;;;;;;7.57;3.60;;;8.50;99.90;;;;;;5000511;28;20081;-83
2023/01/08 03:27:04;;;;;;;4.63;3.75;;;8.60;99.90;;;;;;5016305;28;20128;-82
2023/01/08 03:29:31;;;;;;;5.18;3.50;;;9.10;99.90;;;;;;5000193;28;20053;-81
2023/01/08 03:32:02;;;;;;;9.18;4.63;;;8.60;99.90;;;;;;5033847;28;20055;-83
2023/01/08 03:34:30;;;;;;;6.90;3.92;;;8.70;99.90;;;;;;5034456;28;20438;-82
2023/01/08 03:36:59;;;;;;;7.57;3.85;;;8.70;99.90;;;;;;5016897;28;20135;-83
2023/01/08 03:39:36;;;;;;;8.43;3.60;;;8.70;99.90;;;;;;4999929;28;20099;-84
2023/01/08 03:42:08;;;;;;;6.53;4.20;;;8.70;99.90;;;;;;4999979;28;20100;-84
2023/01/08 03:44:34;;;;;;;7.15;3.97;;;9.60;99.90;;;;;;5000048;28;20045;-84
2023/01/08 03:47:00;;;;;;;7.97;4.40;;;8.80;99.90;;;;;;5016503;28;20489;-84
2023/01/08 03:49:28;;;;;;;7.93;3.75;;;8.90;99.90;;;;;;5033746;28;20049;-84
2023/01/08 03:51:54;;;;;;;6.85;3.92;;;8.80;99.90;;;;;;5016580;28;20057;-84
2023/01/08 03:54:23;;;;;;;7.38;3.92;;;8.80;99.90;;;;;;5016236;28;20072;-84
2023/01/08 03:56:49;;;;;;;5.80;3.70;;;8.80;99.90;;;;;;5033672;28;20128;-84
2023/01/08 03:59:15;;;;;;;8.55;4.53;;;8.80;99.90;;;;;;4999889;28;20083;-84
2023/01/08 04:01:41;;;;;;;9.32;4.20;;;8.90;99.90;;;;;;5015640;28;20049;-82
2023/01/08 04:04:09;;;;;;;7.82;3.78;;;8.80;99.90;;;;;;5016318;28;20045;-84
2023/01/08 04:06:34;;;;;;;4.82;3.63;;;8.80;99.90;;;;;;5015931;28;20049;-84
2023/01/08 04:09:00;;;;;;;6.00;4.20;;;8.80;99.90;;;;;;5033516;28;20049;-84
2023/01/08 04:11:26;;;;;;;9.18;3.92;;;8.80;99.90;;;;;;4999750;28;20042;-83
2023/01/08 04:13:52;;;;;;;7.03;4.53;;;8.80;99.90;;;;;;5033820;28;20393;-84
2023/01/08 04:16:17;;;;;;;10.85;4.60;;;8.80;99.90;;;;;;5033639;28;20046;-82
2023/01/08 04:18:43;;;;;;;11.00;4.75;;;8.80;99.90;;;;;;5033798;28;20048;-83
2023/01/08 04:21:09;;;;;;;9.73;4.25;;;8.80;99.90;;;;;;5000281;28;20070;-84
2023/01/08 04:23:34;;;;;;;7.78;3.78;;;8.80;99.90;;;;;;5000072;28;20077;-83
2023/01/08 04:26:04;;;;;;;6.55;3.25;;;8.80;99.90;;;;;;4999773;28;20096;-82
2023/01/08 04:28:30;;;;;;;4.38;3.05;;;8.90;99.90;;;;;;5033332;28;20096;-84
2023/01/08 04:30:55;;;;;;;6.82;3.83;;;9.20;99.90;;;;;;5015745;28;20041;-82
2023/01/08 04:33:21;;;;;;;7.97;3.25;;;8.60;99.90;;;;;;5033693;28;20072;-83
2023/01/08 04:35:47;;;;;;;7.07;3.25;;;9.00;99.90;;;;;;5017323;28;20064;-83
2023/01/08 04:38:12;;;;;;;7.07;3.55;;;8.60;99.90;;;;;;5002691;28;20052;-82
2023/01/08 04:40:38;;;;;;;5.65;3.33;;;8.60;99.90;;;;;;5016034;28;20101;-85
2023/01/08 04:43:03;;;;;;;6.93;3.38;;;8.70;99.90;;;;;;5015627;28;20387;-84
2023/01/08 04:45:29;;;;;;;8.00;3.20;;;8.60;99.90;;;;;;5015838;28;20077;-84
2023/01/08 04:47:56;;;;;;;5.50;3.25;;;8.60;99.90;;;;;;5015551;28;20440;-84
2023/01/08 04:50:22;;;;;;;5.63;3.30;;;8.70;99.90;;;;;;5015556;28;20042;-84
2023/01/08 04:52:47;;;;;;;8.40;3.05;;;8.60;99.90;;;;;;4999432;28;20466;-84
2023/01/08 04:55:13;;;;;;;6.82;3.00;;;8.60;99.90;;;;;;5033311;28;20053;-84
2023/01/08 04:57:39;;;;;;;5.93;3.20;;;8.90;99.90;;;;;;5015679;28;20049;-83
2023/01/08 05:00:05;;;;;;;7.40;3.17;;;8.60;99.90;;;;;;5015581;28;20050;-84
2023/01/08 05:02:31;;;;;;;6.82;3.20;;;8.50;99.90;;;;;;4999918;28;20055;-83
2023/01/08 05:04:56;;;;;;;6.07;3.03;;;8.50;99.90;;;;;;4999375;28;20405;-83
2023/01/08 05:07:22;;;;;;;4.85;2.70;;;8.50;99.90;;;;;;4999286;28;20044;-83
2023/01/08 05:09:47;;;;;;;7.78;3.30;;;8.50;99.90;;;;;;4999343;28;20568;-84
2023/01/08 05:12:13;;;;;;;3.92;3.00;;;8.50;99.90;;;;;;5015728;28;20061;-83
2023/01/08 05:14:39;;;;;;;6.13;3.30;;;8.40;99.90;;;;;;5018407;28;20088;-83
2023/01/08 05:17:04;;;;;;;8.88;3.45;;;8.50;99.90;;;;;;5019039;28;20037;-84
2023/01/08 05:19:30;;;;;;;7.18;2.88;;;8.30;99.90;;;;;;5019021;28;20049;-83
2023/01/08 05:21:56;;;;;;;5.22;2.20;;;8.40;99.90;;;;;;5002640;28;20498;-82
2023/01/08 05:24:22;;;;;;;6.15;2.63;;;8.40;99.90;;;;;;5036402;28;20053;-82
2023/01/08 05:26:47;;;;;;;5.18;2.38;;;8.40;99.90;;;;;;5018840;28;20577;-83
2023/01/08 05:29:13;;;;;;;6.10;2.28;;;9.50;99.90;;;;;;5002127;28;20402;-83
2023/01/08 05:31:39;;;;;;;8.40;2.25;;;8.40;99.90;;;;;;5019069;28;20044;-84
2023/01/08 05:34:04;;;;;;;5.15;2.05;;;8.30;99.90;;;;;;5018801;28;20438;-83
2023/01/08 05:36:30;;;;;;;5.68;2.03;;;8.40;99.90;;;;;;5036260;28;20056;-82
2023/01/08 05:38:56;;;;;;;6.72;2.17;;;8.30;99.90;;;;;;5020881;28;20136;-82
2023/01/08 05:41:21;;;;;;;7.82;2.40;;;8.20;99.90;;;;;;5018248;28;20375;-83
2023/01/08 05:43:47;;;;;;;5.47;2.00;;;8.20;99.90;;;;;;5018155;28;20049;-84
2023/01/08 05:46:12;;;;;;;5.15;2.10;;;8.20;99.90;;;;;;5018278;28;20393;-82
2023/01/08 05:48:38;;;;;;;5.43;2.00;;;8.10;99.90;;;;;;5002073;28;20048;-83
2023/01/08 05:51:04;;;;;;;6.28;2.03;;;8.10;99.90;;;;;;5018556;28;20052;-84
2023/01/08 05:53:33;;;;;;;4.67;1.77;;;8.00;99.90;;;;;;5002001;28;20045;-83
2023/01/08 05:56:01;;;;;;;5.75;1.83;;;8.00;99.90;;;;;;5018213;28;20124;-82
2023/01/08 05:58:27;;;;;;;4.90;2.05;;;8.00;99.90;;;;;;5035567;28;20445;-84
2023/01/08 06:00:53;;;;;;;4.18;2.00;;;8.00;99.90;;;;;;5017994;28;20104;-84
2023/01/08 06:03:22;;;;;;;5.68;1.70;;;8.00;99.90;;;;;;5001847;28;20045;-84
2023/01/08 06:05:48;;;;;;;4.90;2.13;;;7.90;99.90;;;;;;5035492;28;20041;-82
2023/01/08 06:08:14;;;;;;;6.45;1.92;;;7.90;99.90;;;;;;5035412;28;20048;-83
2023/01/08 06:10:40;;;;;;;4.18;2.25;;;7.90;99.90;;;;;;5017784;28;20136;-82
2023/01/08 06:13:07;;;;;;;5.85;1.95;;;8.70;99.90;;;;;;5017973;28;20093;-83
2023/01/08 06:15:33;;;;;;;4.18;1.65;;;7.90;99.90;;;;;;5035375;28;20100;-83
2023/01/08 06:18:02;;;;;;;4.75;1.75;;;8.80;99.90;;;;;;5017565;28;20076;-84
2023/01/08 06:20:27;;;;;;;6.97;1.60;;;7.80;99.90;;;;;;5001466;28;20049;-84
2023/01/08 06:22:53;;;;;;;6.65;1.75;;;7.80;99.90;;;;;;5035406;28;20052;-83
2023/01/08 06:25:19;;;;;;;5.55;1.77;;;7.80;99.90;;;;;;5001210;28;20478;-84
2023/01/08 06:27:50;;;;;;;6.47;1.90;;;7.80;99.90;;;;;;5035008;28;20049;-84
2023/01/08 06:30:16;;;;;;;6.32;1.90;;;8.30;99.90;;;;;;5017830;28;20283;-83
2023/01/08 06:32:42;;;;;;;5.35;2.00;;;7.80;99.90;;;;;;5034662;28;20037;-83
2023/01/08 06:35:08;;;;;;;4.10;1.70;;;7.80;99.90;;;;;;5034826;28;20155;-83
2023/01/08 06:37:33;;;;;;;6.00;1.85;;;7.80;99.90;;;;;;5034908;28;20057;-83
2023/01/08 06:39:59;;;;;;;7.18;2.00;;;8.50;99.90;;;;;;5017502;28;20445;-83
2023/01/08 06:42:24;;;;;;;8.98;1.92;;;7.80;99.90;;;;;;5017508;28;20038;-83
2023/01/08 06:44:51;;;;;;;5.65;1.85;;;8.20;99.90;;;;;;5017486;28;20144;-90
2023/01/08 06:47:16;;;;;;;4.32;2.05;;;7.80;99.90;;;;;;5001060;28;20084;-83
2023/01/08 06:49:42;;;;;;;4.53;1.80;;;7.80;99.90;;;;;;5018016;28;20142;-85
2023/01/08 06:52:08;;;;;;;4.70;1.60;;;7.80;99.90;;;;;;5017481;28;20477;-86
2023/01/08 06:54:33;;;;;;;9.65;2.03;;;7.80;99.90;;;;;;5034741;28;20128;-85
2023/01/08 06:56:59;;;;;;;6.38;1.75;;;7.80;99.90;;;;;;5034651;28;20120;-84
2023/01/08 06:59:24;;;;;;;8.93;2.30;;;7.80;99.90;;;;;;5017258;28;20045;-84
2023/01/08 07:01:50;;;;;;;5.72;1.80;;;7.80;99.90;;;;;;5017317;28;20500;-82
2023/01/08 07:04:17;;;;;;;6.18;1.90;;;8.50;99.90;;;;;;5034497;28;20041;-85
2023/01/08 07:06:42;;;;;;;;;;;7.80;99.90;;;;;;5001099;28;20449;-84
2023/01/08 07:09:13;;;;;;;5.50;2.13;;;7.80;99.90;;;;;;5000309;28;19921;-84
2023/01/08 07:11:40;;;;;;;5.50;1.67;;;7.70;99.90;;;;;;5016517;28;20572;-85
2023/01/08 07:14:06;;;;;;;8.27;1.95;;;8.40;99.90;;;;;;5016673;28;20088;-83
2023/01/08 07:16:32;;;;;;;6.63;1.60;;;7.70;99.90;;;;;;5016626;28;20081;-83
2023/01/08 07:18:58;;;;;;;6.78;1.73;;;7.70;99.90;;;;;;5034218;28;20069;-84
2023/01/08 07:21:23;;;;;;;4.30;1.80;;;7.80;99.90;;;;;;5000414;28;20053;-84
2023/01/08 07:23:49;;;;;;;5.70;2.00;;;7.70;99.90;;;;;;5034019;28;20564;-85
2023/01/08 07:26:16;;;;;;;8.70;2.30;;;7.80;99.90;;;;;;5016350;28;20045;-83
2023/01/08 07:28:42;;;;;;;6.88;2.22;;;7.80;99.90;;;;;;5034035;28;20104;-81
2023/01/08 07:31:08;;;;;;;4.28;1.80;;;7.70;99.90;;;;;;5016955;28;20132;-83
2023/01/08 07:33:35;;;;;;;6.07;2.10;;;7.70;99.90;;;;;;5016828;28;20160;-84
2023/01/08 07:36:01;;;;;;;6.30;2.00;;;7.70;99.90;;;;;;4999602;28;20065;-85
2023/01/08 07:38:27;;;;;;;4.38;1.88;;;7.70;99.90;;;;;;5016818;28;20148;-82
2023/01/08 07:40:53;;;;;;;8.13;2.10;;;7.70;99.90;;;;;;5016698;28;20107;-84
2023/01/08 07:43:19;;;;;;;5.43;2.20;;;7.70;99.90;;;;;;5021287;28;20045;-86
2023/01/08 07:45:44;;;;;;;9.27;2.70;;;7.60;99.90;;;;;;5016221;28;20037;-89
2023/01/08 07:48:14;;;;;;;6.57;2.13;;;7.70;99.90;;;;;;5000197;28;20041;-86
2023/01/08 07:50:41;;;;;;;3.63;1.92;;;7.70;99.90;;;;;;4984069;28;20493;-83
2023/01/08 07:53:08;;;;;;;3.85;1.80;;;8.10;99.90;;;;;;5033680;28;20132;-83
2023/01/08 07:55:33;;;;;;;4.75;1.92;;;7.70;99.90;;;;;;5033641;28;20445;-82
2023/01/08 07:57:59;;;;;;;7.80;2.05;;;7.70;99.90;;;;;;5016789;28;20204;-81
2023/01/08 08:00:25;;;;;;;7.53;2.03;;;8.20;99.90;;;;;;5033678;28;20052;-82
2023/01/08 08:02:51;;;;;;;6.20;2.10;;;7.60;99.90;;;;;;5016194;28;20136;-82
2023/01/08 08:05:17;;;;;;;3.15;1.95;;;7.60;99.90;;;;;;5033557;28;20481;-82
2023/01/08 08:07:43;;;;;;;3.80;1.80;;;7.50;99.90;;;;;;4999979;28;20124;-82
2023/01/08 08:10:10;;;;;;;2.85;1.80;;;7.50;99.90;;;;;;5016247;28;20437;-82
2023/01/08 08:12:36;;;;;;;7.03;2.08;;;7.50;99.90;;;;;;5016007;28;20087;-81
2023/01/08 08:15:02;;;;;;;3.97;1.83;;;7.40;99.90;;;;;;5033652;28;20041;-82
2023/01/08 08:17:27;;;;;;;3.28;2.50;;;7.30;99.90;;;;;;5034065;28;20536;-83
2023/01/08 08:19:53;;;;;;;5.40;1.88;;;7.30;99.90;;;;;;5016558;28;20129;-82
2023/01/08 08:22:19;;;;;;;3.85;1.63;;;7.30;99.90;;;;;;5033743;28;20081;-83
2023/01/08 08:24:44;;;;;;;4.03;1.73;;;7.40;99.90;;;;;;4999919;28;20037;-82
2023/01/08 08:27:10;;;;;;;8.68;1.77;;;7.90;99.90;;;;;;5016491;28;20096;-82
2023/01/08 08:29:36;;;;;;;3.75;1.70;;;7.10;99.90;;;;;;5033572;28;20042;-81
2023/01/08 08:32:01;;;;;;;5.28;1.98;;;7.00;99.90;;;;;;5015677;28;20598;-82
2023/01/08 08:34:27;;;;;;;8.82;2.13;;;7.10;99.90;;;;;;5016061;28;20136;-81
2023/01/08 08:36:52;;;;;;;5.93;2.03;;;7.10;99.90;;;;;;5015613;28;20049;-81
2023/01/08 08:39:18;;;;;;;5.88;1.85;;;7.00;99.90;;;;;;5031503;28;20124;-81
2023/01/08 08:41:43;;;;;;;5.40;1.90;;;7.10;99.90;;;;;;5031995;28;20045;-82
2023/01/08 08:44:09;;;;;;;6.65;2.00;;;7.20;99.90;;;;;;5015505;28;20089;-81
2023/01/08 08:46:35;;;;;;;4.32;1.80;;;7.10;99.90;;;;;;5016071;28;20084;-82
2023/01/08 08:49:00;;;;;;;4.85;1.75;;;7.40;99.90;;;;;;5019202;28;20462;-83
2023/01/08 08:51:26;;;;;;;3.88;1.98;;;7.20;99.90;;;;;;5036909;28;20049;-81
2023/01/08 08:53:52;;;;;;;4.53;1.73;;;7.20;99.90;;;;;;5036968;28;20041;-81
2023/01/08 08:56:18;;;;;;;3.13;1.83;;;7.20;99.90;;;;;;5019136;28;20116;-82
2023/01/08 08:58:44;;;;;;;3.53;1.55;;;7.20;99.90;;;;;;5036755;28;20426;-82
2023/01/08 09:01:10;;;;;;;2.97;1.87;;;7.20;99.90;;;;;;5003016;28;20049;-82
2023/01/08 09:03:36;;;;;;;5.63;1.67;;;7.20;99.90;;;;;;5019407;28;20291;-82
2023/01/08 09:06:01;;;;;;;3.38;1.63;;;7.30;99.90;;;;;;5019277;28;20466;-81
2023/01/08 09:08:27;;;;;;;4.45;1.80;;;7.30;99.90;;;;;;5018917;28;20124;-82
2023/01/08 09:10:53;;;;;;;2.83;1.80;;;7.30;99.90;;;;;;5036431;28;20135;-82
2023/01/08 09:13:18;;;;;;;4.38;1.98;;;7.30;99.90;;;;;;5019327;28;20474;-81
2023/01/08 09:15:44;;;;;;;8.40;1.60;;;7.30;99.90;;;;;;5036186;28;20132;-82
2023/01/08 09:18:10;;;;;;;3.58;1.75;;;7.30;99.90;;;;;;5036688;28;20053;-81
2023/01/08 09:20:36;;;;;;;6.85;2.05;;;7.40;99.90;;;;;;5018797;28;20088;-82
2023/01/08 09:23:02;;;;;;;4.43;1.80;;;7.40;99.90;;;;;;5036338;28;20041;-83
2023/01/08 09:25:28;;;;;;;2.83;1.70;;;7.40;99.90;;;;;;5036267;28;20046;-82
2023/01/08 09:28:06;;;;;;;5.63;2.45;;;7.50;99.90;;;;;;5019320;28;20034;-82
2023/01/08 09:30:33;;;;;;;3.70;1.80;;;7.50;99.90;;;;;;5018717;28;20061;-82
2023/01/08 09:33:00;;;;;;;4.85;1.63;;;7.50;99.90;;;;;;5036021;28;20512;-81
2023/01/08 09:35:25;;;;;;;7.15;1.75;;;7.50;99.90;;;;;;5034134;28;20052;-82
2023/01/08 09:37:55;;;;;;;5.35;1.88;;;7.60;99.90;;;;;;4998997;28;20042;-81
2023/01/08 09:40:26;;;;;;;9.45;2.15;;;7.60;99.90;;;;;;5016219;28;20057;-83
2023/01/08 09:43:00;;;;;;;4.40;2.00;;;8.10;99.90;;;;;;4998794;28;20137;-82
2023/01/08 09:45:29;;;;;;;6.65;2.08;;;8.30;99.90;;;;;;5016114;28;20042;-82
2023/01/08 09:48:01;;;;;;;5.55;2.10;;;7.70;99.90;;;;;;5016090;28;20402;-81
2023/01/08 09:50:29;;;;;;;4.95;2.70;;;7.70;99.90;;;;;;4998874;28;20397;-83
2023/01/08 09:52:56;;;;;;;5.40;2.10;;;8.20;99.90;;;;;;4998906;28;20056;-82
2023/01/08 09:55:21;;;;;;;7.68;2.58;;;7.80;99.90;;;;;;4982652;28;20056;-82
2023/01/08 09:57:48;;;;;;;7.38;2.47;;;7.80;99.90;;;;;;5015873;28;20486;-82
2023/01/08 10:00:18;;;;;;;6.75;2.42;;;7.80;99.90;;;;;;5015239;28;20038;-82
2023/01/08 10:02:44;;;;;;;5.38;1.90;;;7.80;99.90;;;;;;4998659;28;20132;-81
2023/01/08 10:05:16;;;;;;;7.07;2.30;;;7.80;99.90;;;;;;5015813;28;20092;-81
2023/01/08 10:07:42;;;;;;;5.65;1.95;;;7.90;99.90;;;;;;5016373;28;20502;-81
2023/01/08 10:10:21;;;;;;;6.35;2.20;;;7.90;99.90;;;;;;4998867;28;20053;-80
2023/01/08 10:12:48;;;;;;;6.75;2.45;;;7.90;99.90;;;;;;5015630;28;20049;-81
2023/01/08 10:15:17;;;;;;;4.78;2.00;;;7.90;99.90;;;;;;4998464;28;20057;-82
2023/01/08 10:18:18;;;;;;;6.95;2.53;;;8.00;99.90;;;;;;5015455;28;20092;-80
2023/01/08 10:20:44;;;;;;;6.15;2.22;;;8.00;99.90;;;;;;4935811;29;20534;-82
2023/01/08 10:23:15;;;;;;;6.30;1.77;;;8.10;99.90;;;;;;4998982;28;20058;-81
2023/01/08 10:25:54;;;;;;;5.75;2.15;;;8.10;99.90;;;;;;5015338;28;20050;-82
2023/01/08 10:28:34;;;;;;;6.80;1.90;;;8.10;99.90;;;;;;5015267;28;20054;-81
2023/01/08 10:31:06;;;;;;;3.58;1.92;;;8.10;99.90;;;;;;5015564;28;20088;-82
2023/01/08 10:33:44;;;;;;;5.45;1.90;;;8.20;99.90;;;;;;5015303;28;20042;-81
2023/01/08 10:36:13;;;;;;;7.15;2.05;;;8.20;99.90;;;;;;5023207;28;20057;-81
2023/01/08 10:38:48;;;;;;;7.90;2.20;;;8.20;99.90;;;;;;5034594;28;20051;-81
2023/01/08 10:41:15;;;;;;;8.82;2.38;;;8.90;99.90;;;;;;5017075;28;20049;-83
2023/01/08 10:44:01;;;;;;;9.27;2.90;;;8.30;99.90;;;;;;5034890;28;20383;-81
2023/01/08 10:46:42;;;;;;;8.30;2.25;;;8.30;99.90;;;;;;5017224;28;20326;-83
2023/01/08 10:49:24;;;;;;;7.47;1.83;;;8.30;99.90;;;;;;5017216;28;20046;-83
2023/01/08 10:51:52;;;;;;;10.73;2.10;;;8.30;99.90;;;;;;5034767;28;20084;-83
2023/01/08 10:54:36;;;;;;;12.75;2.70;;;9.10;99.90;;;;;;5000716;28;20091;-81
2023/01/08 10:57:17;;;;;;;8.32;1.95;;;8.70;99.90;;;;;;5017181;28;20045;-84
2023/01/08 10:59:43;;;;;;;10.18;2.10;;;8.50;99.90;;;;;;5016909;28;20467;-85
2023/01/08 11:02:34;;;;;;;10.55;2.25;;;8.40;99.90;;;;;;5017009;28;20128;-85
2023/01/08 11:05:01;;;;;;;9.77;2.65;;;8.40;99.90;;;;;;5034457;28;20608;-84
2023/01/08 11:07:27;;;;;;;;;;;9.50;99.90;;;;;;5034828;28;20084;-85
2023/01/08 11:09:53;;;;;;;11.32;2.10;;;8.60;99.90;;;;;;5034152;28;19921;-81
2023/01/08 11:12:40;;;;;;;5.90;2.17;;;8.50;99.90;;;;;;5000034;28;20490;-83
2023/01/08 11:15:18;;;;;;;6.72;2.08;;;8.60;99.90;;;;;;5000487;28;20049;-82
2023/01/08 11:17:44;;;;;;;8.77;2.40;;;8.80;99.90;;;;;;5034275;28;20042;-83
2023/01/08 11:20:27;;;;;;;9.07;2.33;;;8.50;99.90;;;;;;5034213;28;20053;-83
2023/01/08 11:23:23;;;;;;;8.02;2.30;;;8.60;99.90;;;;;;5034344;28;20369;-82
2023/01/08 11:26:13;;;;;;;9.38;2.13;;;8.60;99.90;;;;;;4999219;28;20057;-81
2023/01/08 11:28:45;;;;;;;5.95;2.00;;;8.70;99.90;;;;;;5033998;28;20496;-82
2023/01/08 11:31:17;;;;;;;13.02;2.10;;;9.50;99.90;;;;;;5034198;28;20046;-81
2023/01/08 11:33:46;;;;;;;10.57;2.67;;;8.80;99.90;;;;;;5016654;28;20143;-81
2023/01/08 11:36:25;;;;;;;7.03;2.05;;;8.90;99.90;;;;;;5016373;28;20053;-80
2023/01/08 11:38:50;;;;;;;13.30;2.10;;;8.90;99.90;;;;;;5034360;28;20497;-80
2023/01/08 11:41:20;;;;;;;9.73;2.20;;;9.00;99.90;;;;;;5042623;28;20056;-85
2023/01/08 11:44:07;;;;;;;10.18;2.30;;;8.90;99.90;;;;;;5016650;28;20041;-81
2023/01/08 11:47:13;;;;;;;7.00;1.88;;;9.30;99.90;;;;;;5016257;28;20104;-82
2023/01/08 11:50:13;;;;;;;8.93;2.20;;;9.00;99.90;;;;;;4934767;29;20094;-84
2023/01/08 11:52:58;;;;;;;9.95;2.17;;;9.10;99.90;;;;;;5016686;28;20102;-84
2023/01/08 11:55:24;;;;;;;7.10;2.15;;;9.10;99.90;;;;;;5016387;28;20045;-82
2023/01/08 11:58:28;;;;;;;7.80;2.38;;;9.10;99.90;;;;;;5016087;28;20489;-83
2023/01/08 12:01:07;;;;;;;8.02;2.10;;;9.10;99.90;;;;;;4987365;28;20053;-81
2023/01/08 12:04:02;;;;;;;6.57;2.10;;;9.10;99.90;;;;;;5032196;28;20053;-82
2023/01/08 12:06:36;;;;;;;8.90;2.22;;;9.10;99.90;;;;;;5032862;28;20084;-82
2023/01/08 12:09:20;;;;;;;6.35;2.10;;;9.70;99.90;;;;;;5033538;28;20041;-80
2023/01/08 12:11:53;;;;;;;10.20;1.83;;;9.20;99.90;;;;;;5033411;28;20526;-83
2023/01/08 12:14:33;;;;;;;5.20;2.22;;;9.40;99.90;;;;;;5033501;28;20124;-83
2023/01/08 12:17:33;;;;;;;8.20;2.63;;;9.20;99.90;;;;;;5033259;28;20103;-82
2023/01/08 12:20:14;;;;;;;7.43;2.30;;;9.20;99.90;;;;;;5015845;28;20056;-81
2023/01/08 12:23:07;;;;;;;7.90;2.35;;;9.10;99.90;;;;;;5035137;28;20046;-81
2023/01/08 12:25:56;;;;;;;6.82;1.90;;;9.10;99.90;;;;;;5037330;28;20056;-81
2023/01/08 12:28:51;;;;;;;8.70;2.95;;;9.10;99.90;;;;;;5019598;28;20041;-86
2023/01/08 12:31:35;;;;;;;9.43;2.10;;;9.10;99.90;;;;;;4974063;28;20092;-84
2023/01/08 12:34:15;;;;;;;6.20;2.20;;;9.10;99.90;;;;;;5019909;28;20045;-83
2023/01/08 12:36:52;;;;;;;8.60;2.30;;;9.50;99.90;;;;;;5036722;28;20110;-85
2023/01/08 12:39:25;;;;;;;11.32;2.17;;;9.20;99.90;;;;;;5003560;28;20398;-83
2023/01/08 12:41:53;;;;;;;8.18;2.00;;;9.20;99.90;;;;;;5019691;28;20053;-83
2023/01/08 12:44:25;;;;;;;6.65;2.35;;;9.20;99.90;;;;;;5036844;28;20076;-86
2023/01/08 12:46:55;;;;;;;8.50;2.15;;;9.60;99.90;;;;;;5036842;28;20041;-88
2023/01/08 12:49:32;;;;;;;7.05;2.17;;;9.30;99.90;;;;;;5019213;28;20037;-83
2023/01/08 12:52:06;;;;;;;5.70;2.00;;;9.30;99.90;;;;;;5020078;28;20049;-83
2023/01/08 12:54:58;;;;;;;7.55;2.17;;;9.80;99.90;;;;;;5019326;28;20485;-84
2023/01/08 12:57:36;;;;;;;11.82;2.20;;;9.30;99.90;;;;;;5036744;28;20085;-84
2023/01/08 13:00:08;;;;;;;8.90;1.83;;;9.40;99.90;;;;;;5019300;28;20398;-85
2023/01/08 13:02:59;;;;;;;6.43;2.17;;;9.20;99.90;;;;;;5019121;28;20045;-83
2023/01/08 13:05:25;;;;;;;6.75;2.08;;;9.20;99.90;;;;;;5019135;28;20041;-83
2023/01/08 13:07:54;;;;;;;6.05;1.90;;;9.40;99.90;;;;;;5019057;28;20172;-86
2023/01/08 13:10:36;;;;;;;7.47;1.88;;;9.30;99.90;;;;;;5036647;28;20049;-86
2023/01/08 13:13:03;;;;;;;6.78;1.98;;;9.40;99.90;;;;;;5002580;28;20041;-84